Time;durP1;ratioP1;P1;durP2;ratioP2;P2;SDS_P1;SDS_P2;PMS_P1;PMS_P2;Temp;Humidity;BMP_temperature;BMP_pressure;BME280_temperature;BME280_humidity;BME280_pressure;Samples;Min_cycle;Max_cycle;Signal;HPM_P1;HPM_P2
2022/01/08 00:00:21;;;;;;;9.00;4.68;;;;;;;;;;5015788;28;20490;-51
2022/01/08 00:02:48;;;;;;;7.90;5.18;;;;;;;;;;5015643;28;20188;-51
2022/01/08 00:05:14;;;;;;;9.40;4.97;;;;;;;;;;5015887;28;20247;-51
2022/01/08 00:07:40;;;;;;;9.60;4.65;;;;;;;;;;5015751;28;20655;-51
2022/01/08 00:10:06;;;;;;;5.75;4.70;;;;;;;;;;5015844;28;20226;-51
2022/01/08 00:12:32;;;;;;;9.15;4.50;;;;;;;;;;5015573;28;20195;-52
2022/01/08 00:14:58;;;;;;;7.63;5.37;;;;;;;;;;5015637;28;20656;-51
2022/01/08 00:17:24;;;;;;;5.18;4.25;;;;;;;;;;5015849;28;20404;-52
2022/01/08 00:19:51;;;;;;;7.47;5.00;;;;;;;;;;5015720;28;20223;-52
2022/01/08 00:22:17;;;;;;;6.80;4.53;;;;;;;;;;5015673;28;20411;-51
2022/01/08 00:24:43;;;;;;;6.20;4.40;;;;;;;;;;5015088;28;20195;-52
2022/01/08 00:27:09;;;;;;;11.03;4.70;;;;;;;;;;5016046;28;20486;-51
2022/01/08 00:29:35;;;;;;;9.85;5.07;;;;;;;;;;5015398;28;20899;-51
2022/01/08 00:32:01;;;;;;;11.87;5.13;;;;;;;;;;5015057;28;20203;-51
2022/01/08 00:34:27;;;;;;;7.60;4.47;;;;;;;;;;5015402;28;20399;-52
2022/01/08 00:36:53;;;;;;;12.13;6.05;;;;;;;;;;5015628;28;20694;-51
2022/01/08 00:39:18;;;;;;;9.63;5.50;;;;;;;;;;5015849;28;20204;-51
2022/01/08 00:41:46;;;;;;;4.70;4.20;;;;;;;;;;5015176;28;20472;-52
2022/01/08 00:44:16;;;;;;;7.97;4.70;;;;;;;;;;5015741;28;20406;-51
2022/01/08 00:46:42;;;;;;;9.27;5.55;;;;;;;;;;5015324;28;20169;-51
2022/01/08 00:49:07;;;;;;;8.90;5.10;;;;;;;;;;5014933;28;20173;-51
2022/01/08 00:51:33;;;;;;;10.23;5.87;;;;;;;;;;5014872;28;20439;-51
2022/01/08 00:53:59;;;;;;;9.90;5.33;;;;;;;;;;5014584;28;20402;-52
2022/01/08 00:56:25;;;;;;;8.67;6.03;;;;;;;;;;5014773;28;20781;-51
2022/01/08 00:58:51;;;;;;;10.70;5.77;;;;;;;;;;5014534;28;20756;-51
2022/01/08 01:01:17;;;;;;;11.07;5.80;;;;;;;;;;5014471;28;20838;-51
2022/01/08 01:03:44;;;;;;;12.60;5.83;;;;;;;;;;5014749;28;20418;-52
2022/01/08 01:06:10;;;;;;;9.32;6.50;;;;;;;;;;5014774;28;20402;-51
2022/01/08 01:08:36;;;;;;;6.87;5.43;;;;;;;;;;5014759;28;20164;-51
2022/01/08 01:11:02;;;;;;;9.53;5.77;;;;;;;;;;5014431;28;20452;-52
2022/01/08 01:13:28;;;;;;;9.43;5.10;;;;;;;;;;5013483;28;20435;-51
2022/01/08 01:15:54;;;;;;;12.13;6.60;;;;;;;;;;5014454;28;20454;-51
2022/01/08 01:18:20;;;;;;;6.72;5.43;;;;;;;;;;5014268;28;20411;-51
2022/01/08 01:20:46;;;;;;;11.45;6.97;;;;;;;;;;5013799;28;20253;-51
2022/01/08 01:23:17;;;;;;;7.43;5.60;;;;;;;;;;5014237;28;20641;-51
2022/01/08 01:25:50;;;;;;;9.93;5.78;;;;;;;;;;5013906;28;20404;-51
2022/01/08 01:41:46;;;;;;;10.85;7.75;;;;;;;;;;5013416;28;20222;-51
2022/01/08 01:47:05;;;;;;;7.07;5.95;;;;;;;;;;5013239;28;20250;-51
2022/01/08 01:49:41;;;;;;;7.57;6.03;;;;;;;;;;5013177;28;20640;-51
2022/01/08 01:52:09;;;;;;;11.50;6.00;;;;;;;;;;5012892;28;20254;-51
2022/01/08 01:54:35;;;;;;;12.02;6.68;;;;;;;;;;5013297;28;20168;-51
2022/01/08 01:57:02;;;;;;;8.80;6.78;;;;;;;;;;5012808;28;20199;-51
2022/01/08 01:59:29;;;;;;;9.45;6.63;;;;;;;;;;5012781;28;20604;-51
2022/01/08 02:01:55;;;;;;;11.00;7.20;;;;;;;;;;5011991;28;20195;-51
2022/01/08 02:04:22;;;;;;;11.80;7.70;;;;;;;;;;5012392;28;20169;-51
2022/01/08 02:06:48;;;;;;;11.30;7.68;;;;;;;;;;5012124;28;20244;-51
2022/01/08 02:09:14;;;;;;;12.75;7.38;;;;;;;;;;5012529;28;20613;-51
2022/01/08 02:11:58;;;;;;;20.33;7.75;;;;;;;;;;5012224;28;20562;-51
2022/01/08 02:14:24;;;;;;;8.88;7.35;;;;;;;;;;5012378;28;20636;-51
2022/01/08 02:16:50;;;;;;;13.65;8.80;;;;;;;;;;5012412;28;20180;-51
2022/01/08 02:19:16;;;;;;;16.10;8.40;;;;;;;;;;5012269;28;20200;-51
2022/01/08 02:22:01;;;;;;;13.83;9.20;;;;;;;;;;5012109;28;20415;-51
2022/01/08 02:24:27;;;;;;;19.60;8.52;;;;;;;;;;5012206;28;20422;-51
2022/01/08 02:26:53;;;;;;;17.67;9.70;;;;;;;;;;5012215;28;20165;-51
2022/01/08 02:29:21;;;;;;;16.85;9.43;;;;;;;;;;5012250;28;20168;-51
2022/01/08 02:32:04;;;;;;;13.48;8.73;;;;;;;;;;5011864;28;20668;-51
2022/01/08 02:34:31;;;;;;;12.27;8.80;;;;;;;;;;5012224;28;20238;-51
2022/01/08 02:36:58;;;;;;;23.45;9.57;;;;;;;;;;5012198;28;20181;-51
2022/01/08 02:39:24;;;;;;;15.40;10.07;;;;;;;;;;5011962;28;20699;-51
2022/01/08 02:41:55;;;;;;;18.05;11.68;;;;;;;;;;5011797;28;20188;-51
2022/01/08 02:44:21;;;;;;;19.67;10.98;;;;;;;;;;5012182;28;20171;-51
2022/01/08 02:46:47;;;;;;;14.48;9.95;;;;;;;;;;5012084;28;20231;-51
2022/01/08 02:49:13;;;;;;;18.57;11.00;;;;;;;;;;5012155;28;20190;-51
2022/01/08 02:51:39;;;;;;;21.23;12.30;;;;;;;;;;5011793;28;20438;-51
2022/01/08 02:54:08;;;;;;;19.70;10.93;;;;;;;;;;5012004;28;20413;-51
2022/01/08 02:59:37;;;;;;;19.48;10.18;;;;;;;;;;5015885;28;20250;-51
2022/01/08 03:02:03;;;;;;;15.43;9.63;;;;;;;;;;5015610;28;20711;-51
2022/01/08 03:04:29;;;;;;;13.85;10.48;;;;;;;;;;5015846;28;20398;-51
2022/01/08 03:06:55;;;;;;;25.83;10.70;;;;;;;;;;5015870;28;20250;-51
2022/01/08 03:09:21;;;;;;;18.87;10.87;;;;;;;;;;5015793;28;20411;-51
2022/01/08 03:11:47;;;;;;;18.03;12.23;;;;;;;;;;5015604;28;20506;-51
2022/01/08 03:14:13;;;;;;;16.13;11.20;;;;;;;;;;5015683;28;20539;-51
2022/01/08 03:16:39;;;;;;;24.60;12.60;;;;;;;;;;5015587;28;20449;-51
2022/01/08 03:19:10;;;;;;;20.13;12.67;;;;;;;;;;5015903;28;20469;-51
2022/01/08 03:21:39;;;;;;;23.55;10.52;;;;;;;;;;5015783;28;20427;-51
2022/01/08 03:24:07;;;;;;;17.90;11.82;;;;;;;;;;5015376;28;20238;-51
2022/01/08 03:26:33;;;;;;;14.63;10.13;;;;;;;;;;5015517;28;20184;-51
2022/01/08 03:28:59;;;;;;;19.73;11.93;;;;;;;;;;5015482;28;20620;-51
2022/01/08 03:31:25;;;;;;;26.70;13.90;;;;;;;;;;5014942;28;20419;-51
2022/01/08 03:33:52;;;;;;;21.13;12.05;;;;;;;;;;5015319;28;20420;-51
2022/01/08 03:36:19;;;;;;;34.83;12.93;;;;;;;;;;5015304;28;20175;-51
2022/01/08 03:38:45;;;;;;;20.05;12.80;;;;;;;;;;5015289;28;20169;-51
2022/01/08 03:41:11;;;;;;;23.23;11.05;;;;;;;;;;5014838;28;20668;-51
2022/01/08 03:43:37;;;;;;;20.17;12.90;;;;;;;;;;5015193;28;20651;-51
2022/01/08 03:46:04;;;;;;;22.30;11.65;;;;;;;;;;5014993;28;20222;-51
2022/01/08 03:48:44;;;;;;;27.80;13.50;;;;;;;;;;5015116;28;20192;-51
2022/01/08 03:51:10;;;;;;;23.88;12.93;;;;;;;;;;5014939;28;20590;-51
2022/01/08 03:53:36;;;;;;;22.90;13.00;;;;;;;;;;5014971;28;20175;-51
2022/01/08 03:56:02;;;;;;;24.95;13.25;;;;;;;;;;5014978;28;20625;-51
2022/01/08 03:58:28;;;;;;;23.83;13.82;;;;;;;;;;5014830;28;20698;-51
2022/01/08 04:00:55;;;;;;;26.10;13.70;;;;;;;;;;5014432;28;20196;-51
2022/01/08 04:03:21;;;;;;;22.45;14.45;;;;;;;;;;5014801;28;20404;-51
2022/01/08 04:05:47;;;;;;;23.52;13.30;;;;;;;;;;5014796;28;20684;-51
2022/01/08 04:08:14;;;;;;;25.05;12.50;;;;;;;;;;5014128;28;20199;-51
2022/01/08 04:10:40;;;;;;;20.85;13.75;;;;;;;;;;5014439;28;20258;-50
2022/01/08 04:13:11;;;;;;;26.15;14.63;;;;;;;;;;5014477;28;20252;-51
2022/01/08 04:15:40;;;;;;;32.70;13.25;;;;;;;;;;5014668;28;20165;-51
2022/01/08 04:18:07;;;;;;;22.85;13.77;;;;;;;;;;5014611;28;20156;-51
2022/01/08 04:20:38;;;;;;;20.77;13.32;;;;;;;;;;5014394;28;20231;-51
2022/01/08 04:23:04;;;;;;;24.08;15.77;;;;;;;;;;5014366;28;20188;-51
2022/01/08 04:25:31;;;;;;;22.90;14.73;;;;;;;;;;5014247;28;20644;-51
2022/01/08 04:27:57;;;;;;;22.45;13.63;;;;;;;;;;5014353;28;20401;-51
2022/01/08 04:30:23;;;;;;;21.95;15.05;;;;;;;;;;5014256;28;20175;-51
2022/01/08 04:32:49;;;;;;;30.47;14.40;;;;;;;;;;5014042;28;20263;-51
2022/01/08 04:35:15;;;;;;;28.63;15.27;;;;;;;;;;5014236;28;20814;-51
2022/01/08 04:37:41;;;;;;;27.67;14.90;;;;;;;;;;5014245;28;20410;-51
2022/01/08 04:40:07;;;;;;;24.65;15.32;;;;;;;;;;5014022;28;20554;-51
2022/01/08 04:42:33;;;;;;;31.63;15.20;;;;;;;;;;5013962;28;20255;-51
2022/01/08 04:44:59;;;;;;;30.98;16.48;;;;;;;;;;5014155;28;20163;-51
2022/01/08 04:47:25;;;;;;;22.63;14.70;;;;;;;;;;5014104;28;20171;-51
2022/01/08 04:49:51;;;;;;;24.83;15.23;;;;;;;;;;5014333;28;20498;-51
2022/01/08 04:52:17;;;;;;;30.47;16.80;;;;;;;;;;5014022;28;20427;-51
2022/01/08 04:54:43;;;;;;;22.87;16.30;;;;;;;;;;5013775;28;20400;-51
2022/01/08 04:57:09;;;;;;;33.60;16.70;;;;;;;;;;5013792;28;20826;-51
2022/01/08 04:59:35;;;;;;;29.07;16.90;;;;;;;;;;5013699;28;20465;-51
2022/01/08 05:02:01;;;;;;;39.57;17.97;;;;;;;;;;5013414;28;20798;-51
2022/01/08 05:04:27;;;;;;;35.42;17.92;;;;;;;;;;5014054;28;20399;-51
2022/01/08 05:06:53;;;;;;;38.10;18.60;;;;;;;;;;5013536;28;20172;-51
2022/01/08 05:09:19;;;;;;;43.72;19.27;;;;;;;;;;5013439;28;20170;-51
2022/01/08 05:11:46;;;;;;;38.20;19.70;;;;;;;;;;5013276;28;20221;-51
2022/01/08 05:14:12;;;;;;;36.90;19.70;;;;;;;;;;5013482;28;20185;-51
2022/01/08 05:16:40;;;;;;;35.78;21.25;;;;;;;;;;5013462;28;20179;-51
2022/01/08 05:19:06;;;;;;;38.83;19.33;;;;;;;;;;5012723;28;20183;-51
2022/01/08 05:21:36;;;;;;;41.57;20.17;;;;;;;;;;5012711;28;20188;-51
2022/01/08 05:24:02;;;;;;;38.47;22.35;;;;;;;;;;5013152;28;20430;-51
2022/01/08 05:26:28;;;;;;;41.90;21.20;;;;;;;;;;5013486;28;20172;-51
2022/01/08 05:28:55;;;;;;;32.13;19.53;;;;;;;;;;5013374;28;20172;-51
2022/01/08 05:31:22;;;;;;;39.60;21.88;;;;;;;;;;5012941;28;20423;-51
2022/01/08 05:33:49;;;;;;;35.85;21.95;;;;;;;;;;5013198;28;20164;-51
2022/01/08 05:36:15;;;;;;;40.40;22.02;;;;;;;;;;5013055;28;20185;-51
2022/01/08 05:38:41;;;;;;;48.37;22.27;;;;;;;;;;5013139;28;20260;-51
2022/01/08 05:41:07;;;;;;;45.95;21.70;;;;;;;;;;5012523;28;20459;-51
2022/01/08 05:43:33;;;;;;;40.03;22.50;;;;;;;;;;5013063;28;20177;-51
2022/01/08 05:45:59;;;;;;;42.80;23.83;;;;;;;;;;5012990;28;20161;-51
2022/01/08 05:48:26;;;;;;;47.15;21.52;;;;;;;;;;5012991;28;20571;-50
2022/01/08 05:50:52;;;;;;;48.53;22.60;;;;;;;;;;5012531;28;20215;-51
2022/01/08 05:53:19;;;;;;;50.13;24.17;;;;;;;;;;5012859;28;20172;-51
2022/01/08 05:55:45;;;;;;;46.10;24.80;;;;;;;;;;5012780;28;20636;-51
2022/01/08 05:58:11;;;;;;;50.70;24.02;;;;;;;;;;5013776;28;20203;-51
2022/01/08 06:00:37;;;;;;;49.55;23.05;;;;;;;;;;5012456;28;20638;-51
2022/01/08 06:03:03;;;;;;;53.40;25.75;;;;;;;;;;5012620;28;20601;-51
2022/01/08 06:05:29;;;;;;;54.95;24.10;;;;;;;;;;5012727;28;20804;-51
2022/01/08 06:07:55;;;;;;;48.77;26.50;;;;;;;;;;5012867;28;20191;-51
2022/01/08 06:10:22;;;;;;;51.33;25.53;;;;;;;;;;5012502;28;20982;-50
2022/01/08 06:12:48;;;;;;;48.78;24.73;;;;;;;;;;5012427;28;20446;-51
2022/01/08 06:15:14;;;;;;;49.83;23.67;;;;;;;;;;5012482;28;20172;-51
2022/01/08 06:17:40;;;;;;;42.67;22.52;;;;;;;;;;5012942;28;20575;-51
2022/01/08 06:20:06;;;;;;;49.10;25.10;;;;;;;;;;5012136;28;20192;-51
2022/01/08 06:22:32;;;;;;;44.08;23.48;;;;;;;;;;5012109;28;20419;-51
2022/01/08 06:24:58;;;;;;;44.50;22.92;;;;;;;;;;5012182;28;20666;-51
2022/01/08 06:27:24;;;;;;;47.20;24.03;;;;;;;;;;5012364;28;20173;-51
2022/01/08 06:29:50;;;;;;;56.22;24.92;;;;;;;;;;5012378;28;20401;-51
2022/01/08 06:32:17;;;;;;;39.20;22.90;;;;;;;;;;5011953;28;20198;-51
2022/01/08 06:34:43;;;;;;;46.95;23.33;;;;;;;;;;5012475;28;20904;-51
2022/01/08 06:37:09;;;;;;;44.72;24.67;;;;;;;;;;5012650;28;20171;-51
2022/01/08 06:39:35;;;;;;;45.90;23.88;;;;;;;;;;5012742;28;20290;-51
2022/01/08 06:42:01;;;;;;;45.10;24.65;;;;;;;;;;5012187;28;20227;-51
2022/01/08 06:44:27;;;;;;;42.63;24.25;;;;;;;;;;5012473;28;20176;-51
2022/01/08 06:46:53;;;;;;;38.83;23.00;;;;;;;;;;5012335;28;20176;-51
2022/01/08 06:49:19;;;;;;;38.33;20.60;;;;;;;;;;5012020;28;20486;-51
2022/01/08 06:51:45;;;;;;;46.97;24.30;;;;;;;;;;5011901;28;20833;-51
2022/01/08 06:54:11;;;;;;;49.15;22.92;;;;;;;;;;5012250;28;20407;-51
2022/01/08 06:56:37;;;;;;;40.65;20.17;;;;;;;;;;5012289;28;20260;-51
2022/01/08 06:59:03;;;;;;;42.05;21.17;;;;;;;;;;5012157;28;20180;-51
2022/01/08 07:01:30;;;;;;;48.13;21.55;;;;;;;;;;5011413;28;20260;-51
2022/01/08 07:03:56;;;;;;;38.88;21.45;;;;;;;;;;5011385;28;20177;-51
2022/01/08 07:06:22;;;;;;;45.17;22.90;;;;;;;;;;5011745;28;20172;-51
2022/01/08 07:08:48;;;;;;;49.78;23.00;;;;;;;;;;5011695;28;20195;-51
2022/01/08 07:11:14;;;;;;;37.15;19.08;;;;;;;;;;5011606;28;20212;-51
2022/01/08 07:13:40;;;;;;;43.50;21.15;;;;;;;;;;5012181;28;20180;-51
2022/01/08 07:16:07;;;;;;;50.92;21.42;;;;;;;;;;5012034;28;20582;-51
2022/01/08 07:18:33;;;;;;;31.33;19.73;;;;;;;;;;5011869;28;20251;-50
2022/01/08 07:20:59;;;;;;;46.67;22.50;;;;;;;;;;5011825;28;20711;-51
2022/01/08 07:23:25;;;;;;;39.35;20.02;;;;;;;;;;5012092;28;20410;-51
2022/01/08 07:25:51;;;;;;;40.70;22.07;;;;;;;;;;5012203;28;20562;-51
2022/01/08 07:28:17;;;;;;;37.73;23.03;;;;;;;;;;5012095;28;20436;-51
2022/01/08 07:30:44;;;;;;;47.00;21.85;;;;;;;;;;5011534;28;20478;-51
2022/01/08 07:33:10;;;;;;;40.50;19.83;;;;;;;;;;5011649;28;20258;-51
2022/01/08 07:35:36;;;;;;;38.00;19.37;;;;;;;;;;5011835;28;20209;-50
2022/01/08 07:38:02;;;;;;;32.45;19.33;;;;;;;;;;5011673;28;20477;-51
2022/01/08 07:40:28;;;;;;;41.88;22.17;;;;;;;;;;5011491;28;20546;-51
2022/01/08 07:42:55;;;;;;;45.80;20.27;;;;;;;;;;5012112;28;20199;-51
2022/01/08 07:45:21;;;;;;;49.30;22.30;;;;;;;;;;5015264;28;20396;-51
2022/01/08 07:47:47;;;;;;;37.00;23.17;;;;;;;;;;5015223;28;20573;-51
2022/01/08 07:50:14;;;;;;;41.67;20.38;;;;;;;;;;5015292;28;20415;-51
2022/01/08 07:52:40;;;;;;;50.55;19.48;;;;;;;;;;5001269;28;20215;-51
2022/01/08 07:55:06;;;;;;;39.05;19.80;;;;;;;;;;4995351;28;20184;-51
2022/01/08 07:57:32;;;;;;;36.50;19.40;;;;;;;;;;4995669;28;20276;-51
2022/01/08 07:59:58;;;;;;;41.58;21.27;;;;;;;;;;4995277;28;20728;-51
2022/01/08 08:02:25;;;;;;;32.97;18.35;;;;;;;;;;4995091;28;20677;-51
2022/01/08 08:04:51;;;;;;;43.13;19.40;;;;;;;;;;4994607;28;20223;-51
2022/01/08 08:07:31;;;;;;;41.90;18.97;;;;;;;;;;4994662;28;20578;-51
2022/01/08 08:09:57;;;;;;;49.90;21.05;;;;;;;;;;4994572;28;20483;-51
2022/01/08 08:12:23;;;;;;;49.40;22.60;;;;;;;;;;4994717;28;20272;-51
2022/01/08 08:14:49;;;;;;;32.95;18.98;;;;;;;;;;4994626;28;20905;-51
2022/01/08 08:17:15;;;;;;;31.38;15.57;;;;;;;;;;4994456;28;20177;-50
2022/01/08 08:19:41;;;;;;;36.90;22.30;;;;;;;;;;4994500;28;20206;-51
2022/01/08 08:22:07;;;;;;;52.17;21.13;;;;;;;;;;4994335;28;20420;-51
2022/01/08 08:24:32;;;;;;;41.87;20.90;;;;;;;;;;4994316;28;20433;-51
2022/01/08 08:26:58;;;;;;;40.13;21.00;;;;;;;;;;4994145;28;20412;-51
2022/01/08 08:29:24;;;;;;;38.30;19.77;;;;;;;;;;4994138;28;20534;-51
2022/01/08 08:31:50;;;;;;;41.50;19.17;;;;;;;;;;4994046;28;20428;-51
2022/01/08 08:34:16;;;;;;;34.47;18.30;;;;;;;;;;4994020;28;20419;-51
2022/01/08 08:36:42;;;;;;;39.50;20.40;;;;;;;;;;4994108;28;20995;-51
2022/01/08 08:39:08;;;;;;;47.20;24.60;;;;;;;;;;4994246;28;20408;-51
2022/01/08 08:41:34;;;;;;;38.07;19.07;;;;;;;;;;4993670;28;20435;-51
2022/01/08 08:44:00;;;;;;;34.47;18.47;;;;;;;;;;4993728;28;20547;-51
2022/01/08 08:46:26;;;;;;;40.13;19.10;;;;;;;;;;4993911;28;20426;-51
2022/01/08 08:48:53;;;;;;;38.93;18.17;;;;;;;;;;4993985;28;20404;-51
2022/01/08 08:51:19;;;;;;;29.48;16.40;;;;;;;;;;4993446;28;20430;-51
2022/01/08 08:53:45;;;;;;;26.10;15.67;;;;;;;;;;4993827;28;20262;-51
2022/01/08 08:56:10;;;;;;;36.03;16.95;;;;;;;;;;4993623;28;20455;-51
2022/01/08 08:58:36;;;;;;;28.93;16.47;;;;;;;;;;4993749;28;20585;-51
2022/01/08 09:01:02;;;;;;;27.20;14.57;;;;;;;;;;4993286;28;20523;-51
2022/01/08 09:03:28;;;;;;;30.38;17.65;;;;;;;;;;4993626;28;20412;-51
2022/01/08 09:05:54;;;;;;;31.40;15.20;;;;;;;;;;4993485;28;20232;-51
2022/01/08 09:08:20;;;;;;;30.67;19.00;;;;;;;;;;4993281;28;20416;-51
2022/01/08 09:10:46;;;;;;;31.87;16.30;;;;;;;;;;4993093;28;20786;-51
2022/01/08 09:13:12;;;;;;;29.85;14.93;;;;;;;;;;4993208;28;20412;-51
2022/01/08 09:15:41;;;;;;;33.08;16.95;;;;;;;;;;4993864;28;20180;-51
2022/01/08 09:18:08;;;;;;;22.40;12.20;;;;;;;;;;4992582;28;20162;-51
2022/01/08 09:20:34;;;;;;;31.65;15.48;;;;;;;;;;4993595;28;20201;-51
2022/01/08 09:23:00;;;;;;;26.08;12.55;;;;;;;;;;4993695;28;20193;-51
2022/01/08 09:25:26;;;;;;;28.43;14.40;;;;;;;;;;4993494;28;20269;-51
2022/01/08 09:27:52;;;;;;;23.85;13.60;;;;;;;;;;4993494;28;20410;-51
2022/01/08 09:30:18;;;;;;;28.48;14.77;;;;;;;;;;4993582;28;20259;-51
2022/01/08 09:32:45;;;;;;;28.90;14.20;;;;;;;;;;4993385;28;20303;-51
2022/01/08 09:35:12;;;;;;;28.65;14.93;;;;;;;;;;4993575;28;20404;-51
2022/01/08 09:37:39;;;;;;;32.47;15.15;;;;;;;;;;4993578;28;20176;-51
2022/01/08 09:40:06;;;;;;;38.05;18.17;;;;;;;;;;4993830;28;20272;-51
2022/01/08 09:42:32;;;;;;;29.48;15.25;;;;;;;;;;4993372;28;20196;-51
2022/01/08 09:44:58;;;;;;;35.13;14.97;;;;;;;;;;4993593;28;20173;-51
2022/01/08 09:47:24;;;;;;;28.30;15.27;;;;;;;;;;4993509;28;20411;-51
2022/01/08 09:49:50;;;;;;;36.43;15.07;;;;;;;;;;4993291;28;20407;-51
2022/01/08 09:52:16;;;;;;;33.00;16.43;;;;;;;;;;4993004;28;20424;-51
2022/01/08 09:54:43;;;;;;;33.42;16.92;;;;;;;;;;4993065;28;20527;-51
2022/01/08 09:57:09;;;;;;;21.50;13.77;;;;;;;;;;4993314;28;20256;-51
2022/01/08 09:59:35;;;;;;;26.17;16.30;;;;;;;;;;4993211;28;20459;-51
2022/01/08 10:02:01;;;;;;;30.23;16.50;;;;;;;;;;4992789;28;20908;-51
2022/01/08 10:04:33;;;;;;;24.98;14.32;;;;;;;;;;4993412;28;20415;-51
2022/01/08 10:07:14;;;;;;;35.50;15.45;;;;;;;;;;4992552;28;20252;-51
2022/01/08 10:09:58;;;;;;;35.58;17.25;;;;;;;;;;4993056;28;20176;-51
2022/01/08 10:12:44;;;;;;;33.60;15.88;;;;;;;;;;4992832;28;20200;-51
2022/01/08 10:17:56;;;;;;;38.55;17.02;;;;;;;;;;4992913;28;20188;-51
2022/01/08 10:20:33;;;;;;;29.00;14.18;;;;;;;;;;4992692;28;20200;-51
2022/01/08 10:23:10;;;;;;;27.48;15.20;;;;;;;;;;4992664;28;20211;-51
2022/01/08 10:25:36;;;;;;;24.77;15.55;;;;;;;;;;4992765;28;20176;-51
2022/01/08 10:28:02;;;;;;;32.23;14.77;;;;;;;;;;4993220;28;20190;-51
2022/01/08 10:30:28;;;;;;;31.20;14.00;;;;;;;;;;4992625;28;20407;-51
2022/01/08 10:32:57;;;;;;;36.20;14.10;;;;;;;;;;4992499;28;20431;-51
2022/01/08 10:35:43;;;;;;;33.53;13.65;;;;;;;;;;4992733;28;20211;-51
2022/01/08 10:38:09;;;;;;;23.27;11.65;;;;;;;;;;4992930;28;20183;-51
2022/01/08 10:40:35;;;;;;;24.47;13.27;;;;;;;;;;4992336;28;20209;-51
2022/01/08 10:43:01;;;;;;;23.42;11.35;;;;;;;;;;4992757;28;20423;-51
2022/01/08 10:45:34;;;;;;;19.57;11.17;;;;;;;;;;4992700;28;20173;-51
2022/01/08 10:48:04;;;;;;;21.20;11.10;;;;;;;;;;4992698;28;20446;-51
2022/01/08 10:50:30;;;;;;;25.42;11.70;;;;;;;;;;4993073;28;20177;-51
2022/01/08 10:52:57;;;;;;;21.33;12.13;;;;;;;;;;4992277;28;20268;-51
2022/01/08 10:55:30;;;;;;;20.95;10.23;;;;;;;;;;4992431;28;20408;-51
2022/01/08 10:57:56;;;;;;;26.35;11.02;;;;;;;;;;4992606;28;20597;-51
2022/01/08 11:00:30;;;;;;;16.20;10.10;;;;;;;;;;4992668;28;20265;-51
2022/01/08 11:02:56;;;;;;;15.40;8.55;;;;;;;;;;4992198;28;20424;-51
2022/01/08 11:05:22;;;;;;;10.93;7.17;;;;;;;;;;4992514;28;20664;-51
2022/01/08 11:07:48;;;;;;;12.50;8.60;;;;;;;;;;4992386;28;20404;-51
2022/01/08 11:10:21;;;;;;;16.30;8.60;;;;;;;;;;4992370;28;20185;-51
2022/01/08 11:12:48;;;;;;;14.82;7.47;;;;;;;;;;4992119;28;20790;-51
2022/01/08 11:17:45;;;;;;;15.65;9.25;;;;;;;;;;4992966;28;20169;-51
2022/01/08 11:20:16;;;;;;;17.05;10.18;;;;;;;;;;4996483;28;20211;-51
2022/01/08 11:22:43;;;;;;;17.75;9.63;;;;;;;;;;4995957;28;20189;-51
2022/01/08 11:25:09;;;;;;;15.07;8.68;;;;;;;;;;4996074;28;20185;-51
2022/01/08 11:27:41;;;;;;;12.23;7.67;;;;;;;;;;4996242;28;20168;-51
2022/01/08 11:30:12;;;;;;;25.00;10.10;;;;;;;;;;4996107;28;20462;-51
2022/01/08 11:32:40;;;;;;;20.73;9.85;;;;;;;;;;4998144;28;20379;-51
2022/01/08 11:35:07;;;;;;;15.80;9.45;;;;;;;;;;4999564;28;20181;-51
2022/01/08 11:37:33;;;;;;;16.63;8.88;;;;;;;;;;4996503;28;20169;-51
2022/01/08 11:40:05;;;;;;;14.50;8.93;;;;;;;;;;4996761;28;20196;-52
2022/01/08 11:42:32;;;;;;;11.73;7.57;;;;;;;;;;4995363;28;20184;-51
2022/01/08 11:45:00;;;;;;;11.15;7.32;;;;;;;;;;4995638;28;20252;-51
2022/01/08 11:47:29;;;;;;;13.95;6.95;;;;;;;;;;4995420;28;20342;-51
2022/01/08 11:49:55;;;;;;;14.73;7.85;;;;;;;;;;4995818;28;20172;-51
2022/01/08 11:52:22;;;;;;;13.93;6.80;;;;;;;;;;4995588;28;20200;-51
2022/01/08 11:54:50;;;;;;;14.25;7.50;;;;;;;;;;4996327;28;20641;-51
2022/01/08 11:57:17;;;;;;;11.82;6.55;;;;;;;;;;4996292;28;20173;-51
2022/01/08 11:59:43;;;;;;;14.32;6.82;;;;;;;;;;4996485;28;20206;-51
2022/01/08 12:02:11;;;;;;;10.80;6.70;;;;;;;;;;4994452;28;20653;-52
2022/01/08 12:04:37;;;;;;;7.07;5.40;;;;;;;;;;4996177;28;20656;-51
2022/01/08 12:07:21;;;;;;;8.88;5.68;;;;;;;;;;4996022;28;20165;-51
2022/01/08 12:09:47;;;;;;;7.05;4.90;;;;;;;;;;4996006;28;20172;-49
2022/01/08 12:12:13;;;;;;;6.20;4.72;;;;;;;;;;4994422;28;20691;-49
2022/01/08 12:14:42;;;;;;;8.93;5.17;;;;;;;;;;4993117;28;20177;-50
2022/01/08 12:17:16;;;;;;;11.85;6.25;;;;;;;;;;4994914;28;20466;-50
2022/01/08 12:19:46;;;;;;;5.82;4.35;;;;;;;;;;4995954;28;20259;-49
2022/01/08 12:22:21;;;;;;;9.85;5.30;;;;;;;;;;4994554;28;20200;-51
2022/01/08 12:24:53;;;;;;;7.07;4.40;;;;;;;;;;4994543;28;20652;-49
2022/01/08 12:27:34;;;;;;;7.80;4.80;;;;;;;;;;4994803;28;20248;-49
2022/01/08 12:30:21;;;;;;;7.05;4.22;;;;;;;;;;4992921;28;20191;-51
2022/01/08 12:32:50;;;;;;;8.57;4.35;;;;;;;;;;4987433;28;20255;-49
2022/01/08 12:35:18;;;;;;;5.18;4.22;;;;;;;;;;4994380;28;20169;-49
2022/01/08 12:38:05;;;;;;;7.05;4.85;;;;;;;;;;4994497;28;20219;-49
2022/01/08 12:40:45;;;;;;;6.00;4.15;;;;;;;;;;4994253;28;20201;-49
2022/01/08 12:43:30;;;;;;;7.05;4.88;;;;;;;;;;4994441;28;20625;-49
2022/01/08 12:46:12;;;;;;;6.55;5.00;;;;;;;;;;4994448;28;20176;-49
2022/01/08 12:48:38;;;;;;;6.88;4.10;;;;;;;;;;4994346;28;20641;-49
2022/01/08 12:51:06;;;;;;;6.45;4.07;;;;;;;;;;4993977;28;20177;-49
2022/01/08 12:53:33;;;;;;;6.60;4.20;;;;;;;;;;4994188;28;20239;-49
2022/01/08 12:55:59;;;;;;;8.43;3.80;;;;;;;;;;4993943;28;20173;-50
2022/01/08 12:58:25;;;;;;;10.03;4.40;;;;;;;;;;4994204;28;20179;-49
2022/01/08 13:00:59;;;;;;;9.50;4.70;;;;;;;;;;4993743;28;20543;-51
2022/01/08 13:03:25;;;;;;;5.13;4.00;;;;;;;;;;4994160;28;20422;-49
2022/01/08 13:05:52;;;;;;;9.38;4.47;;;;;;;;;;4993861;28;20641;-49
2022/01/08 13:08:22;;;;;;;8.00;3.95;;;;;;;;;;4993957;28;20208;-49
2022/01/08 13:10:48;;;;;;;6.15;3.80;;;;;;;;;;4993292;28;20239;-49
2022/01/08 13:13:14;;;;;;;11.18;4.00;;;;;;;;;;4994095;28;20582;-51
2022/01/08 13:15:40;;;;;;;9.43;4.80;;;;;;;;;;4993761;28;20200;-49
2022/01/08 13:18:16;;;;;;;4.40;3.43;;;;;;;;;;4993867;28;20397;-49
2022/01/08 13:20:42;;;;;;;6.65;3.75;;;;;;;;;;4993262;28;20443;-49
2022/01/08 13:23:10;;;;;;;6.10;4.07;;;;;;;;;;4993404;28;20191;-49
2022/01/08 13:25:36;;;;;;;5.32;2.72;;;;;;;;;;4993518;28;20581;-49
2022/01/08 13:28:02;;;;;;;4.10;3.45;;;;;;;;;;4993796;28;20528;-49
2022/01/08 13:30:28;;;;;;;9.05;3.65;;;;;;;;;;4993461;28;20176;-49
2022/01/08 13:33:01;;;;;;;8.40;3.20;;;;;;;;;;4993292;28;20193;-49
2022/01/08 13:35:27;;;;;;;6.30;3.20;;;;;;;;;;4993319;28;20487;-49
2022/01/08 13:37:53;;;;;;;6.93;3.25;;;;;;;;;;4993497;28;20227;-49
2022/01/08 13:40:19;;;;;;;6.70;4.10;;;;;;;;;;4992590;28;20205;-49
2022/01/08 13:42:45;;;;;;;6.93;3.60;;;;;;;;;;4992912;28;20427;-49
2022/01/08 13:45:15;;;;;;;8.93;3.75;;;;;;;;;;4993329;28;20797;-49
2022/01/08 13:47:49;;;;;;;6.25;3.50;;;;;;;;;;4993210;28;20172;-49
2022/01/08 13:50:17;;;;;;;6.05;3.50;;;;;;;;;;4992985;28;20272;-50
2022/01/08 13:52:46;;;;;;;4.40;3.97;;;;;;;;;;4992818;28;20554;-51
2022/01/08 13:55:12;;;;;;;5.75;3.38;;;;;;;;;;4993028;28;20172;-49
2022/01/08 13:57:38;;;;;;;3.25;2.47;;;;;;;;;;4993035;28;20173;-49
2022/01/08 14:00:14;;;;;;;6.07;3.92;;;;;;;;;;4992926;28;20206;-49
2022/01/08 14:02:40;;;;;;;5.35;3.30;;;;;;;;;;4992624;28;20208;-49
2022/01/08 14:05:06;;;;;;;6.50;3.03;;;;;;;;;;4992993;28;20614;-49
2022/01/08 14:07:36;;;;;;;5.50;4.05;;;;;;;;;;4992914;28;20755;-49
2022/01/08 14:10:03;;;;;;;4.60;3.53;;;;;;;;;;4992755;28;20168;-49
2022/01/08 14:12:29;;;;;;;19.50;3.70;;;;;;;;;;4991193;28;20201;-49
2022/01/08 14:14:55;;;;;;;7.03;3.03;;;;;;;;;;4992762;28;20225;-50
2022/01/08 14:17:21;;;;;;;3.25;2.92;;;;;;;;;;4992498;28;20413;-49
2022/01/08 14:19:49;;;;;;;5.13;2.70;;;;;;;;;;4992620;28;20196;-49
2022/01/08 14:22:23;;;;;;;4.30;3.70;;;;;;;;;;4992141;28;20471;-51
2022/01/08 14:24:51;;;;;;;3.00;2.80;;;;;;;;;;4992592;28;20183;-49
2022/01/08 14:27:19;;;;;;;8.93;3.80;;;;;;;;;;4992989;28;20172;-49
2022/01/08 14:29:47;;;;;;;4.22;3.47;;;;;;;;;;4992419;28;20176;-51
2022/01/08 14:32:16;;;;;;;5.18;4.13;;;;;;;;;;4992332;28;20268;-49
2022/01/08 14:34:46;;;;;;;3.85;3.10;;;;;;;;;;4992535;28;20168;-49
2022/01/08 14:37:16;;;;;;;6.32;3.75;;;;;;;;;;4992439;28;20220;-51
2022/01/08 14:39:45;;;;;;;5.25;3.67;;;;;;;;;;4992340;28;20262;-49
2022/01/08 14:42:15;;;;;;;5.15;2.92;;;;;;;;;;4992115;28;20181;-49
2022/01/08 14:44:42;;;;;;;5.30;3.67;;;;;;;;;;4992347;28;20549;-49
2022/01/08 14:47:08;;;;;;;3.10;2.67;;;;;;;;;;4992294;28;20191;-49
2022/01/08 14:49:34;;;;;;;4.97;3.03;;;;;;;;;;4992435;28;20240;-49
2022/01/08 14:52:00;;;;;;;4.30;3.47;;;;;;;;;;4993981;28;20888;-49